createdAt,value
2023-01-20T00:03:01.792Z,100564.13
2023-01-20T00:06:04.930Z,100567.66
2023-01-20T00:09:06.623Z,100570.16
2023-01-20T00:12:09.208Z,100567.69
2023-01-20T00:15:12.359Z,100569.97
2023-01-20T00:18:15.543Z,100575.38
2023-01-20T00:21:17.308Z,100574.53
2023-01-20T00:24:19.949Z,100573.50
2023-01-20T00:27:21.363Z,100573.47
2023-01-20T00:30:24.678Z,100581.38
2023-01-20T00:33:26.236Z,100591.19
2023-01-20T00:36:32.483Z,100583.91
2023-01-20T00:39:34.012Z,100587.84
2023-01-20T00:42:37.093Z,100587.00
2023-01-20T00:45:40.612Z,100590.75
2023-01-20T00:48:43.392Z,100596.38
2023-01-20T00:51:46.133Z,100600.78
2023-01-20T00:54:47.730Z,100602.44
2023-01-20T00:57:50.464Z,100607.00
2023-01-20T01:00:54.407Z,100608.91
2023-01-20T01:03:57.087Z,100613.28
2023-01-20T01:06:59.730Z,100617.88
2023-01-20T01:10:06.318Z,100613.28
2023-01-20T01:13:08.260Z,100622.66
2023-01-20T01:16:13.387Z,100623.88
2023-01-20T01:19:18.677Z,100619.31
2023-01-20T01:22:20.495Z,100622.44
2023-01-20T01:25:23.266Z,100621.16
2023-01-20T01:28:25.973Z,100622.84
2023-01-20T01:31:28.018Z,100629.91
2023-01-20T01:34:30.980Z,100624.28
2023-01-20T01:37:32.327Z,100632.22
2023-01-20T01:40:36.009Z,100634.91
2023-01-20T01:43:38.683Z,100633.25
2023-01-20T01:46:42.766Z,100634.06
2023-01-20T01:49:44.513Z,100642.59
2023-01-20T01:52:49.932Z,100649.47
2023-01-20T01:55:55.868Z,100650.28
2023-01-20T01:59:01.362Z,100656.75
2023-01-20T02:02:03.536Z,100650.91
2023-01-20T02:05:07.093Z,100659.81
2023-01-20T02:08:10.019Z,100657.97
2023-01-20T02:11:11.355Z,100662.31
2023-01-20T02:14:12.687Z,100674.63
2023-01-20T02:17:26.451Z,100680.28
2023-01-20T02:20:50.466Z,100684.19
2023-01-20T02:24:32.526Z,100691.69
2023-01-20T02:28:00.377Z,100693.13
2023-01-20T02:31:24.551Z,100694.00
2023-01-20T02:34:32.449Z,100694.63
2023-01-20T02:37:45.064Z,100702.72
2023-01-20T02:40:55.376Z,100698.53
2023-01-20T02:44:03.513Z,100706.28
2023-01-20T02:47:13.368Z,100710.47
2023-01-20T02:50:22.571Z,100715.66
2023-01-20T02:53:29.695Z,100721.50
2023-01-20T02:56:35.160Z,100725.88
2023-01-20T02:59:42.824Z,100736.06
2023-01-20T03:02:48.114Z,100737.69
2023-01-20T03:05:56.528Z,100734.56
2023-01-20T03:09:00.983Z,100740.59
2023-01-20T03:12:12.767Z,100744.56
2023-01-20T03:15:16.278Z,100749.91
2023-01-20T03:18:19.066Z,100749.91
2023-01-20T03:21:21.640Z,100760.56
2023-01-20T03:24:25.170Z,100759.69
2023-01-20T03:27:26.738Z,100762.84
2023-01-20T03:30:29.406Z,100770.16
2023-01-20T03:33:30.880Z,100763.66
2023-01-20T03:36:35.173Z,100765.78
2023-01-20T03:39:39.101Z,100770.97
2023-01-20T03:42:48.221Z,100773.22
2023-01-20T03:45:55.099Z,100772.84
2023-01-20T03:49:07.467Z,100767.63
2023-01-20T03:52:17.969Z,100779.03
2023-01-20T03:55:24.976Z,100779.44
2023-01-20T03:58:32.563Z,100783.19
2023-01-20T04:01:36.846Z,100786.13
2023-01-20T04:04:41.727Z,100785.81
2023-01-20T04:07:46.586Z,100784.97
2023-01-20T04:10:49.704Z,100795.66
2023-01-20T04:13:52.425Z,100801.94
2023-01-20T04:16:57.455Z,100796.91
2023-01-20T04:20:04.755Z,100805.78
2023-01-20T04:23:11.372Z,100808.59
2023-01-20T04:26:12.863Z,100814.38
2023-01-20T04:29:15.753Z,100815.03
2023-01-20T04:32:17.328Z,100814.66
2023-01-20T04:35:19.785Z,100817.28
2023-01-20T04:38:21.786Z,100822.88
2023-01-20T04:41:24.524Z,100834.75
2023-01-20T04:44:26.331Z,100835.53
2023-01-20T04:47:30.214Z,100833.47
2023-01-20T04:50:31.910Z,100838.16
2023-01-20T04:53:35.664Z,100830.50
2023-01-20T04:56:38.418Z,100835.91
2023-01-20T04:59:41.372Z,100844.28
2023-01-20T05:02:42.936Z,100846.22
2023-01-20T05:05:52.673Z,100850.28
2023-01-20T05:08:54.898Z,100851.44
2023-01-20T05:11:56.849Z,100857.25
2023-01-20T05:14:58.229Z,100861.34
2023-01-20T05:18:01.053Z,100865.16
2023-01-20T05:21:03.885Z,100871.44
2023-01-20T05:24:06.746Z,100871.06
2023-01-20T05:27:08.413Z,100871.97
2023-01-20T05:30:11.229Z,100875.66
2023-01-20T05:33:12.567Z,100880.16
2023-01-20T05:36:15.385Z,100886.59
2023-01-20T05:39:17.407Z,100890.03
2023-01-20T05:42:19.972Z,100900.06
2023-01-20T05:45:21.230Z,100904.19
2023-01-20T05:48:22.643Z,100909.22
2023-01-20T05:51:25.202Z,100911.81
2023-01-20T05:54:27.166Z,100921.66
2023-01-20T05:57:28.568Z,100909.59
2023-01-20T06:00:31.474Z,100917.56
2023-01-20T06:03:32.928Z,100930.69
2023-01-20T06:06:35.554Z,100934.28
2023-01-20T06:09:37.509Z,100931.41
2023-01-20T06:12:40.096Z,100946.16
2023-01-20T06:15:41.389Z,100948.72
2023-01-20T06:18:44.095Z,100956.56
2023-01-20T06:21:47.177Z,100964.09
2023-01-20T06:24:50.468Z,100964.03
2023-01-20T06:27:51.877Z,100963.84
2023-01-20T06:30:59.113Z,100969.59
2023-01-20T06:40:43.435Z,100977.25
2023-01-20T06:43:45.074Z,100994.09
2023-01-20T06:46:48.299Z,100996.34
2023-01-20T06:49:50.817Z,101008.97
2023-01-20T06:52:54.685Z,101022.09
2023-01-20T06:55:58.131Z,101028.97
2023-01-20T06:58:59.479Z,101029.81
2023-01-20T07:02:00.903Z,101037.47
2023-01-20T07:05:03.881Z,101039.31
2023-01-20T07:08:07.033Z,101043.97
2023-01-20T07:11:09.297Z,101045.84
2023-01-20T07:14:10.827Z,101050.66
2023-01-20T07:17:12.565Z,101057.56
2023-01-20T07:20:14.111Z,101060.63
2023-01-20T07:23:16.824Z,101065.66
2023-01-20T07:26:20.511Z,101067.91
2023-01-20T07:29:40.925Z,101070.59
2023-01-20T07:32:42.370Z,101083.91
2023-01-20T07:35:45.454Z,101086.34
2023-01-20T07:42:09.960Z,101085.44
2023-01-20T07:45:11.476Z,101096.25
2023-01-20T07:48:12.871Z,101091.56
2023-01-20T07:51:15.665Z,101099.28
2023-01-20T07:54:18.487Z,101106.94
2023-01-20T07:57:20.809Z,101105.56
2023-01-20T08:00:22.521Z,101107.31
2023-01-20T08:03:27.428Z,101108.44
2023-01-20T08:06:29.645Z,101110.47
2023-01-20T08:09:32.139Z,101114.41
2023-01-20T08:12:34.128Z,101118.97
2023-01-20T08:15:35.464Z,101128.75
2023-01-20T08:18:37.241Z,101117.75
2023-01-20T08:21:39.792Z,101122.06
2023-01-20T08:24:41.148Z,101119.91
2023-01-20T08:27:44.350Z,101130.16
2023-01-20T08:30:45.699Z,101138.84
2023-01-20T08:33:49.456Z,101140.50
2023-01-20T08:36:53.241Z,101140.41
2023-01-20T08:43:17.216Z,101141.13
2023-01-20T08:46:22.039Z,101152.06
2023-01-20T08:52:44.580Z,101162.56
2023-01-20T08:55:56.008Z,101156.03
2023-01-20T08:58:58.980Z,101165.44
2023-01-20T09:02:01.841Z,101167.38
2023-01-20T09:08:26.233Z,101165.25
2023-01-20T09:11:28.808Z,101183.38
2023-01-20T09:14:32.152Z,101190.25
2023-01-20T09:17:34.351Z,101192.97
2023-01-20T09:20:37.775Z,101198.38
2023-01-20T09:23:40.414Z,101198.81
2023-01-20T09:26:42.976Z,101213.28
2023-01-20T09:29:46.144Z,101214.88
2023-01-20T09:32:49.075Z,101214.91
2023-01-20T09:35:55.318Z,101219.66
2023-01-20T09:39:14.658Z,101222.44
2023-01-20T09:42:48.339Z,101234.09
2023-01-20T09:45:57.568Z,101225.41
2023-01-20T09:49:30.598Z,101229.88
2023-01-20T09:52:54.909Z,101230.19
2023-01-20T09:55:59.368Z,101235.88
2023-01-20T09:59:08.075Z,101237.16
2023-01-20T10:02:18.693Z,101241.06
2023-01-20T10:05:23.338Z,101241.72
2023-01-20T10:08:31.993Z,101242.25
2023-01-20T10:11:39.109Z,101250.84
2023-01-20T10:14:44.489Z,101253.09
2023-01-20T10:17:52.378Z,101260.19
2023-01-20T10:20:59.305Z,101258.06
2023-01-20T10:24:08.399Z,101257.72
2023-01-20T10:27:09.761Z,101269.47
2023-01-20T10:30:14.820Z,101264.56
2023-01-20T10:33:24.407Z,101261.59
2023-01-20T10:36:29.019Z,101266.44
2023-01-20T10:39:39.293Z,101267.44
2023-01-20T10:42:41.050Z,101265.34
2023-01-20T10:46:06.467Z,101270.69
2023-01-20T10:49:36.741Z,101275.47
2023-01-20T10:56:27.993Z,101273.22
2023-01-20T10:59:34.060Z,101274.78
2023-01-20T11:02:38.449Z,101270.56
2023-01-20T11:05:42.899Z,101280.84
2023-01-20T11:08:44.570Z,101284.13
2023-01-20T11:11:48.120Z,101281.56
2023-01-20T11:14:49.629Z,101290.50
2023-01-20T11:18:28.315Z,101285.78
2023-01-20T11:21:32.697Z,101284.78
2023-01-20T11:24:42.408Z,101289.03
2023-01-20T11:27:46.822Z,101300.34
2023-01-20T11:30:52.818Z,101292.66
2023-01-20T11:37:21.146Z,101293.72
2023-01-20T11:40:24.477Z,101296.47
2023-01-20T11:43:31.761Z,101296.91
2023-01-20T11:46:35.671Z,101290.16
2023-01-20T11:49:38.488Z,101303.44
2023-01-20T11:52:42.849Z,101304.28
2023-01-20T11:55:50.038Z,101307.19
2023-01-20T11:58:56.548Z,101306.19
2023-01-20T12:02:00.888Z,101302.16
2023-01-20T12:05:10.962Z,101299.81
2023-01-20T12:08:18.644Z,101310.31
2023-01-20T12:11:28.474Z,101318.41
2023-01-20T12:14:33.771Z,101306.34
2023-01-20T12:17:51.078Z,101310.31
2023-01-20T12:20:59.868Z,101315.03
2023-01-20T12:24:10.005Z,101310.03
2023-01-20T12:30:48.740Z,101321.78
2023-01-20T12:33:56.759Z,101334.16
2023-01-20T12:37:06.173Z,101334.91
2023-01-20T12:40:20.483Z,101335.69
2023-01-20T12:43:39.783Z,101349.50
2023-01-20T12:46:45.538Z,101344.72
2023-01-20T12:50:18.459Z,101348.06
2023-01-20T12:53:32.068Z,101353.53
2023-01-20T12:56:46.448Z,101363.53
2023-01-20T13:00:11.727Z,101372.06
2023-01-20T13:04:00.205Z,101376.94
2023-01-20T13:07:16.852Z,101379.78
2023-01-20T13:10:45.879Z,101386.97
2023-01-20T13:14:03.482Z,101391.75
2023-01-20T13:17:14.187Z,101392.00
2023-01-20T13:20:23.695Z,101401.88
2023-01-20T13:23:28.003Z,101399.16
2023-01-20T13:26:30.952Z,101415.28
2023-01-20T13:29:53.454Z,101414.16
2023-01-20T13:33:03.473Z,101413.81
2023-01-20T13:36:21.392Z,101426.47
2023-01-20T13:39:40.026Z,101423.13
2023-01-20T13:42:55.079Z,101422.19
2023-01-20T13:46:29.701Z,101419.84
2023-01-20T13:49:50.641Z,101422.53
2023-01-20T13:53:25.999Z,101434.69
2023-01-20T13:56:29.628Z,101428.06
2023-01-20T13:59:32.273Z,101433.66
2023-01-20T14:02:36.512Z,101430.31
2023-01-20T14:05:40.970Z,101437.59
2023-01-20T14:08:46.323Z,101436.56
2023-01-20T14:11:52.648Z,101439.28
2023-01-20T14:14:54.589Z,101440.56
2023-01-20T14:17:58.472Z,101455.34
2023-01-20T14:21:04.637Z,101455.16
2023-01-20T14:24:07.469Z,101461.16
2023-01-20T14:27:14.297Z,101462.97
2023-01-20T14:30:20.496Z,101470.31
2023-01-20T14:33:23.208Z,101466.31
2023-01-20T14:36:30.315Z,101469.22
2023-01-20T14:39:33.801Z,101470.16
2023-01-20T14:42:39.081Z,101471.44
2023-01-20T14:45:43.257Z,101483.06
2023-01-20T14:48:45.811Z,101481.75
2023-01-20T14:51:50.813Z,101487.06
2023-01-20T14:54:55.699Z,101489.22
2023-01-20T14:57:59.911Z,101496.50
2023-01-20T15:01:03.920Z,101503.78
2023-01-20T15:04:06.708Z,101508.00
2023-01-20T15:07:17.986Z,101509.69
2023-01-20T15:10:20.734Z,101519.31
2023-01-20T15:13:25.308Z,101522.47
2023-01-20T15:16:28.755Z,101531.13
2023-01-20T15:19:33.534Z,101530.97
2023-01-20T15:22:35.496Z,101537.31
2023-01-20T15:25:37.203Z,101548.09
2023-01-20T15:28:43.893Z,101540.31
2023-01-20T15:31:45.310Z,101550.69
2023-01-20T15:34:47.655Z,101561.31
2023-01-20T15:37:50.327Z,101556.66
2023-01-20T15:40:52.885Z,101556.34
2023-01-20T15:43:55.453Z,101566.06
2023-01-20T15:46:57.796Z,101573.06
2023-01-20T15:50:00.409Z,101576.03
2023-01-20T15:53:02.787Z,101574.88
2023-01-20T15:56:05.570Z,101578.41
2023-01-20T15:59:12.292Z,101591.50
2023-01-20T16:02:17.903Z,101601.94
2023-01-20T16:05:19.229Z,101611.94
2023-01-20T16:08:23.118Z,101618.03
2023-01-20T16:11:24.461Z,101618.75
2023-01-20T16:17:45.554Z,101629.75
2023-01-20T16:20:48.956Z,101632.19
2023-01-20T16:23:50.991Z,101637.16
2023-01-20T16:26:52.278Z,101639.91
2023-01-20T16:29:55.175Z,101650.72
2023-01-20T16:32:57.753Z,101660.22
2023-01-20T16:36:00.452Z,101655.00
2023-01-20T16:39:02.596Z,101657.84
2023-01-20T16:42:04.082Z,101666.47
2023-01-20T16:45:14.359Z,101672.25
2023-01-20T16:48:15.783Z,101674.41
2023-01-20T16:51:19.439Z,101675.44
2023-01-20T16:54:22.706Z,101682.72
2023-01-20T16:57:24.301Z,101681.03
2023-01-20T17:00:25.832Z,101678.34
2023-01-20T17:03:27.259Z,101684.75
2023-01-20T17:06:30.232Z,101696.25
2023-01-20T17:09:32.307Z,101708.41
2023-01-20T17:12:34.886Z,101704.84
2023-01-20T17:15:40.995Z,101714.53
2023-01-20T17:18:44.784Z,101702.03
2023-01-20T17:21:47.400Z,101719.41
2023-01-20T17:24:49.383Z,101712.78
2023-01-20T17:27:52.072Z,101726.22
2023-01-20T17:30:54.460Z,101733.78
2023-01-20T17:33:55.929Z,101741.25
2023-01-20T17:36:57.332Z,101738.38
2023-01-20T17:40:00.864Z,101746.16
2023-01-20T17:43:03.478Z,101746.59
2023-01-20T17:46:13.282Z,101755.50
2023-01-20T17:49:14.763Z,101754.81
2023-01-20T17:52:19.499Z,101765.78
2023-01-20T17:55:22.700Z,101772.69
2023-01-20T17:58:24.156Z,101771.38
2023-01-20T18:01:28.754Z,101778.69
2023-01-20T18:04:31.325Z,101777.81
2023-01-20T18:07:32.685Z,101779.19
2023-01-20T18:10:36.010Z,101784.09
2023-01-20T18:13:39.470Z,101779.38
2023-01-20T18:16:41.374Z,101784.28
2023-01-20T18:19:43.062Z,101778.53
2023-01-20T18:22:48.113Z,101784.72
2023-01-20T18:25:53.426Z,101790.38
2023-01-20T18:28:56.500Z,101791.22
2023-01-20T18:32:01.915Z,101806.09
2023-01-20T18:35:04.224Z,101797.31
2023-01-20T18:38:07.263Z,101811.50
2023-01-20T18:41:10.021Z,101813.03
2023-01-20T18:44:13.027Z,101815.41
2023-01-20T18:47:14.728Z,101817.75
2023-01-20T18:50:18.001Z,101821.97
2023-01-20T18:53:19.593Z,101823.34
2023-01-20T18:56:23.396Z,101823.66
2023-01-20T18:59:24.959Z,101824.16
2023-01-20T19:05:47.584Z,101841.44
2023-01-20T19:08:50.829Z,101842.94
2023-01-20T19:11:52.834Z,101844.09
2023-01-20T19:14:55.708Z,101847.16
2023-01-20T19:17:57.094Z,101843.13
2023-01-20T19:21:05.254Z,101856.28
2023-01-20T19:24:07.259Z,101852.91
2023-01-20T19:27:10.497Z,101859.16
2023-01-20T19:30:12.635Z,101860.69
2023-01-20T19:33:16.666Z,101867.59
2023-01-20T19:36:19.315Z,101865.91
2023-01-20T19:39:20.644Z,101862.22
2023-01-20T19:42:24.873Z,101884.03
2023-01-20T19:45:40.332Z,101881.13
2023-01-20T19:48:46.364Z,101885.38
2023-01-20T19:51:47.728Z,101894.66
2023-01-20T19:54:51.660Z,101893.66
2023-01-20T19:57:55.419Z,101908.34
2023-01-20T20:01:05.523Z,101904.44
2023-01-20T20:04:09.686Z,101914.06
2023-01-20T20:07:12.847Z,101908.00
2023-01-20T20:10:16.970Z,101912.88
2023-01-20T20:13:19.326Z,101912.75
2023-01-20T20:16:21.485Z,101918.47
2023-01-20T20:19:24.100Z,101920.66
2023-01-20T20:22:26.657Z,101927.09
2023-01-20T20:25:28.004Z,101929.31
2023-01-20T20:28:31.639Z,101938.41
2023-01-20T20:31:36.159Z,101929.94
2023-01-20T20:34:37.574Z,101928.94
2023-01-20T20:37:39.992Z,101936.34
2023-01-20T20:40:42.598Z,101938.19
2023-01-20T20:43:45.912Z,101948.34
2023-01-20T20:46:48.103Z,101952.56
2023-01-20T20:49:50.891Z,101952.72
2023-01-20T20:52:52.336Z,101953.41
2023-01-20T20:59:23.975Z,101960.28
2023-01-20T21:02:25.667Z,101970.72
2023-01-20T21:05:27.051Z,101970.72
2023-01-20T21:08:28.924Z,101968.22
2023-01-20T21:11:30.446Z,101970.59
2023-01-20T21:14:32.438Z,101978.19
2023-01-20T21:17:33.745Z,101985.28
2023-01-20T21:20:36.372Z,101980.75
2023-01-20T21:23:39.830Z,101997.59
2023-01-20T21:30:04.378Z,101978.41
2023-01-20T21:33:05.796Z,101993.03
2023-01-20T21:36:09.107Z,101988.00
2023-01-20T21:39:11.797Z,101991.41
2023-01-20T21:42:14.329Z,101990.00
2023-01-20T21:45:17.658Z,101994.41
2023-01-20T21:48:38.277Z,102009.78
2023-01-20T21:51:59.412Z,102018.41
2023-01-20T21:55:01.401Z,102022.66
2023-01-20T21:58:03.971Z,102027.50
2023-01-20T22:01:06.035Z,102030.72
2023-01-20T22:04:08.724Z,102032.41
2023-01-20T22:07:10.537Z,102032.91
2023-01-20T22:10:13.669Z,102041.97
2023-01-20T22:13:17.064Z,102039.63
2023-01-20T22:16:19.341Z,102040.66
2023-01-20T22:19:21.974Z,102044.09
2023-01-20T22:22:23.294Z,102047.78
2023-01-20T22:25:25.838Z,102047.69
2023-01-20T22:28:30.219Z,102038.63
2023-01-20T22:31:33.266Z,102051.06
2023-01-20T22:34:35.802Z,102048.47
2023-01-20T22:37:38.596Z,102051.91
2023-01-20T22:40:39.928Z,102059.84
2023-01-20T22:43:44.559Z,102065.09
2023-01-20T22:46:46.542Z,102070.16
2023-01-20T22:49:49.052Z,102081.63
2023-01-20T22:52:50.390Z,102085.66
2023-01-20T22:56:00.924Z,102083.66
2023-01-20T22:59:02.606Z,102082.81
2023-01-20T23:02:05.887Z,102083.22
2023-01-20T23:05:07.858Z,102089.72
2023-01-20T23:11:32.127Z,102083.56
2023-01-20T23:14:52.683Z,102089.56
2023-01-20T23:17:55.080Z,102103.13
2023-01-20T23:20:58.035Z,102098.00
2023-01-20T23:24:00.694Z,102105.69
2023-01-20T23:27:02.012Z,102104.47
2023-01-20T23:30:06.258Z,102108.28
2023-01-20T23:33:09.325Z,102104.72
2023-01-20T23:36:14.649Z,102110.47
2023-01-20T23:39:17.251Z,102116.78
2023-01-20T23:42:18.935Z,102118.47
2023-01-20T23:45:21.584Z,102116.91
2023-01-20T23:48:23.708Z,102123.34
2023-01-20T23:51:26.353Z,102113.94
2023-01-20T23:54:29.189Z,102114.78
2023-01-20T23:57:30.515Z,102114.13
